sensor_id;sensor_type;location;lat;lon;timestamp;pressure;altitude;pressure_sealevel;temperature;humidity
19236;BME280;9752;54.270;12.470;2023-10-19T00:04:32;101754.41;;;5.97;100.00
19236;BME280;9752;54.270;12.470;2023-10-19T00:09:35;101737.72;;;6.02;100.00
19236;BME280;9752;54.270;12.470;2023-10-19T00:14:39;101721.50;;;6.03;100.00
19236;BME280;9752;54.270;12.470;2023-10-19T00:19:42;101705.28;;;6.04;100.00
19236;BME280;9752;54.270;12.470;2023-10-19T00:24:58;101674.31;;;6.13;100.00
19236;BME280;9752;54.270;12.470;2023-10-19T00:30:01;101654.63;;;6.13;100.00
19236;BME280;9752;54.270;12.470;2023-10-19T00:35:08;101639.72;;;6.19;100.00
19236;BME280;9752;54.270;12.470;2023-10-19T00:40:27;101622.88;;;6.23;100.00
19236;BME280;9752;54.270;12.470;2023-10-19T00:45:35;101606.09;;;6.18;100.00
19236;BME280;9752;54.270;12.470;2023-10-19T00:50:41;101596.44;;;6.15;100.00
19236;BME280;9752;54.270;12.470;2023-10-19T00:55:47;101579.72;;;6.20;100.00
19236;BME280;9752;54.270;12.470;2023-10-19T01:00:49;101559.50;;;6.25;100.00
19236;BME280;9752;54.270;12.470;2023-10-19T01:05:56;101549.53;;;6.38;100.00
19236;BME280;9752;54.270;12.470;2023-10-19T01:10:58;101537.03;;;6.43;100.00
19236;BME280;9752;54.270;12.470;2023-10-19T01:16:00;101517.59;;;6.47;100.00
19236;BME280;9752;54.270;12.470;2023-10-19T01:21:05;101505.41;;;6.54;100.00
19236;BME280;9752;54.270;12.470;2023-10-19T01:26:09;101497.66;;;6.54;100.00
19236;BME280;9752;54.270;12.470;2023-10-19T01:31:12;101479.63;;;6.54;100.00
19236;BME280;9752;54.270;12.470;2023-10-19T01:36:16;101471.13;;;6.55;100.00
19236;BME280;9752;54.270;12.470;2023-10-19T01:41:27;101465.47;;;6.59;100.00
19236;BME280;9752;54.270;12.470;2023-10-19T01:46:33;101458.41;;;6.67;100.00
19236;BME280;9752;54.270;12.470;2023-10-19T01:51:36;101453.38;;;6.69;100.00
19236;BME280;9752;54.270;12.470;2023-10-19T01:56:40;101442.31;;;6.80;100.00
19236;BME280;9752;54.270;12.470;2023-10-19T02:01:43;101433.69;;;6.90;100.00
19236;BME280;9752;54.270;12.470;2023-10-19T02:06:46;101406.63;;;6.95;100.00
19236;BME280;9752;54.270;12.470;2023-10-19T02:11:53;101395.53;;;7.06;100.00
19236;BME280;9752;54.270;12.470;2023-10-19T02:16:57;101380.41;;;7.11;100.00
19236;BME280;9752;54.270;12.470;2023-10-19T02:22:00;101353.69;;;7.20;100.00
19236;BME280;9752;54.270;12.470;2023-10-19T02:27:06;101334.47;;;7.27;100.00
19236;BME280;9752;54.270;12.470;2023-10-19T02:32:09;101324.63;;;7.43;100.00
19236;BME280;9752;54.270;12.470;2023-10-19T02:37:12;101301.38;;;7.43;100.00
19236;BME280;9752;54.270;12.470;2023-10-19T02:42:15;101276.97;;;7.50;100.00
19236;BME280;9752;54.270;12.470;2023-10-19T02:47:17;101255.13;;;7.57;100.00
19236;BME280;9752;54.270;12.470;2023-10-19T02:52:19;101240.31;;;7.54;100.00
19236;BME280;9752;54.270;12.470;2023-10-19T02:57:22;101228.53;;;7.58;100.00
19236;BME280;9752;54.270;12.470;2023-10-19T03:02:24;101208.38;;;7.64;100.00
19236;BME280;9752;54.270;12.470;2023-10-19T03:07:26;101083.13;;;7.69;100.00
19236;BME280;9752;54.270;12.470;2023-10-19T03:12:29;101061.91;;;7.73;100.00
19236;BME280;9752;54.270;12.470;2023-10-19T03:17:31;101054.16;;;7.73;100.00
19236;BME280;9752;54.270;12.470;2023-10-19T03:22:33;101044.53;;;7.71;100.00
19236;BME280;9752;54.270;12.470;2023-10-19T03:27:36;101038.69;;;7.73;100.00
19236;BME280;9752;54.270;12.470;2023-10-19T03:32:38;101018.47;;;7.79;100.00
19236;BME280;9752;54.270;12.470;2023-10-19T03:37:40;101020.16;;;7.79;100.00
19236;BME280;9752;54.270;12.470;2023-10-19T03:42:44;101020.28;;;7.80;100.00
19236;BME280;9752;54.270;12.470;2023-10-19T03:47:47;101009.97;;;7.80;100.00
19236;BME280;9752;54.270;12.470;2023-10-19T03:52:50;100998.19;;;7.84;100.00
19236;BME280;9752;54.270;12.470;2023-10-19T03:57:53;100981.00;;;7.85;100.00
19236;BME280;9752;54.270;12.470;2023-10-19T04:02:55;100995.34;;;7.93;100.00
19236;BME280;9752;54.270;12.470;2023-10-19T04:07:58;100988.97;;;7.99;100.00
19236;BME280;9752;54.270;12.470;2023-10-19T04:13:03;100977.50;;;7.96;100.00
19236;BME280;9752;54.270;12.470;2023-10-19T04:18:05;100973.34;;;7.98;100.00
19236;BME280;9752;54.270;12.470;2023-10-19T04:23:10;100965.50;;;7.96;100.00
19236;BME280;9752;54.270;12.470;2023-10-19T04:28:16;100966.50;;;7.98;100.00
19236;BME280;9752;54.270;12.470;2023-10-19T04:33:20;100955.16;;;7.96;100.00
19236;BME280;9752;54.270;12.470;2023-10-19T04:38:25;100955.16;;;7.96;100.00
19236;BME280;9752;54.270;12.470;2023-10-19T04:43:28;100937.00;;;7.95;100.00
19236;BME280;9752;54.270;12.470;2023-10-19T04:48:30;100945.06;;;7.99;100.00
19236;BME280;9752;54.270;12.470;2023-10-19T04:53:32;100938.09;;;7.98;100.00
19236;BME280;9752;54.270;12.470;2023-10-19T04:58:35;100918.53;;;8.02;100.00
19236;BME280;9752;54.270;12.470;2023-10-19T05:03:37;100911.59;;;8.01;100.00
19236;BME280;9752;54.270;12.470;2023-10-19T05:08:39;100920.13;;;8.00;100.00
19236;BME280;9752;54.270;12.470;2023-10-19T05:13:42;100914.19;;;8.01;100.00
19236;BME280;9752;54.270;12.470;2023-10-19T05:18:43;100894.53;;;8.03;100.00
19236;BME280;9752;54.270;12.470;2023-10-19T05:23:45;100894.28;;;8.00;100.00
19236;BME280;9752;54.270;12.470;2023-10-19T05:28:48;100889.25;;;8.01;100.00
19236;BME280;9752;54.270;12.470;2023-10-19T05:33:50;100885.78;;;8.01;100.00
19236;BME280;9752;54.270;12.470;2023-10-19T05:38:53;100877.22;;;8.02;100.00
19236;BME280;9752;54.270;12.470;2023-10-19T05:43:55;100880.03;;;8.05;100.00
19236;BME280;9752;54.270;12.470;2023-10-19T05:48:57;100879.22;;;8.06;100.00
19236;BME280;9752;54.270;12.470;2023-10-19T05:53:59;100874.06;;;8.06;100.00
19236;BME280;9752;54.270;12.470;2023-10-19T05:59:04;100870.94;;;8.10;100.00
19236;BME280;9752;54.270;12.470;2023-10-19T06:04:07;100873.59;;;8.12;100.00
19236;BME280;9752;54.270;12.470;2023-10-19T06:09:08;100860.13;;;8.16;100.00
19236;BME280;9752;54.270;12.470;2023-10-19T06:14:11;100850.25;;;8.10;100.00
19236;BME280;9752;54.270;12.470;2023-10-19T06:19:13;100843.06;;;8.18;100.00
19236;BME280;9752;54.270;12.470;2023-10-19T06:24:16;100833.84;;;8.21;100.00
19236;BME280;9752;54.270;12.470;2023-10-19T06:29:20;100813.34;;;8.25;100.00
19236;BME280;9752;54.270;12.470;2023-10-19T06:34:27;100810.53;;;8.33;100.00
19236;BME280;9752;54.270;12.470;2023-10-19T06:39:29;100792.31;;;8.32;100.00
19236;BME280;9752;54.270;12.470;2023-10-19T06:44:32;100779.63;;;8.35;100.00
19236;BME280;9752;54.270;12.470;2023-10-19T06:49:34;100767.69;;;8.37;100.00
19236;BME280;9752;54.270;12.470;2023-10-19T06:54:35;100751.94;;;8.46;100.00
19236;BME280;9752;54.270;12.470;2023-10-19T06:59:39;100741.13;;;8.51;100.00
19236;BME280;9752;54.270;12.470;2023-10-19T07:04:41;100705.25;;;8.56;100.00
19236;BME280;9752;54.270;12.470;2023-10-19T07:09:42;100693.22;;;8.56;100.00
19236;BME280;9752;54.270;12.470;2023-10-19T07:14:45;100683.28;;;8.63;100.00
19236;BME280;9752;54.270;12.470;2023-10-19T07:19:47;100680.69;;;8.63;100.00
19236;BME280;9752;54.270;12.470;2023-10-19T07:24:49;100678.50;;;8.69;100.00
19236;BME280;9752;54.270;12.470;2023-10-19T07:29:53;100657.13;;;8.71;100.00
19236;BME280;9752;54.270;12.470;2023-10-19T07:34:56;100658.13;;;8.73;100.00
19236;BME280;9752;54.270;12.470;2023-10-19T07:39:59;100634.16;;;8.76;100.00
19236;BME280;9752;54.270;12.470;2023-10-19T07:45:03;100622.91;;;8.75;100.00
19236;BME280;9752;54.270;12.470;2023-10-19T07:50:06;100615.25;;;8.77;100.00
19236;BME280;9752;54.270;12.470;2023-10-19T07:55:12;100604.53;;;8.84;100.00
19236;BME280;9752;54.270;12.470;2023-10-19T08:00:17;100606.13;;;8.82;100.00
19236;BME280;9752;54.270;12.470;2023-10-19T08:05:19;100615.75;;;8.85;100.00
19236;BME280;9752;54.270;12.470;2023-10-19T08:10:21;100598.03;;;8.91;100.00
19236;BME280;9752;54.270;12.470;2023-10-19T08:15:24;100604.16;;;9.06;100.00
19236;BME280;9752;54.270;12.470;2023-10-19T08:20:26;100577.63;;;9.09;100.00
19236;BME280;9752;54.270;12.470;2023-10-19T08:25:30;100585.94;;;9.18;100.00
19236;BME280;9752;54.270;12.470;2023-10-19T08:30:34;100595.38;;;9.17;100.00
19236;BME280;9752;54.270;12.470;2023-10-19T08:35:37;100576.59;;;9.20;100.00
19236;BME280;9752;54.270;12.470;2023-10-19T08:40:39;100555.97;;;9.22;100.00
19236;BME280;9752;54.270;12.470;2023-10-19T08:45:42;100569.56;;;9.32;100.00
19236;BME280;9752;54.270;12.470;2023-10-19T08:50:44;100568.94;;;9.36;100.00
19236;BME280;9752;54.270;12.470;2023-10-19T08:55:46;100556.78;;;9.49;100.00
19236;BME280;9752;54.270;12.470;2023-10-19T09:00:51;100553.38;;;9.50;100.00
19236;BME280;9752;54.270;12.470;2023-10-19T09:05:55;100554.34;;;9.52;100.00
19236;BME280;9752;54.270;12.470;2023-10-19T09:10:57;100547.56;;;9.54;100.00
19236;BME280;9752;54.270;12.470;2023-10-19T09:16:05;100541.69;;;9.56;100.00
19236;BME280;9752;54.270;12.470;2023-10-19T09:21:07;100537.13;;;9.52;100.00
19236;BME280;9752;54.270;12.470;2023-10-19T09:26:12;100535.25;;;9.50;100.00
19236;BME280;9752;54.270;12.470;2023-10-19T09:31:15;100531.03;;;9.52;100.00
19236;BME280;9752;54.270;12.470;2023-10-19T09:36:17;100526.31;;;9.60;100.00
19236;BME280;9752;54.270;12.470;2023-10-19T09:41:21;100524.66;;;9.60;100.00
19236;BME280;9752;54.270;12.470;2023-10-19T09:46:31;100517.25;;;9.66;100.00
19236;BME280;9752;54.270;12.470;2023-10-19T09:51:37;100511.63;;;9.73;100.00
19236;BME280;9752;54.270;12.470;2023-10-19T09:56:41;100519.94;;;9.83;100.00
19236;BME280;9752;54.270;12.470;2023-10-19T10:02:05;100500.34;;;9.73;100.00
19236;BME280;9752;54.270;12.470;2023-10-19T10:07:08;100500.63;;;9.77;100.00
19236;BME280;9752;54.270;12.470;2023-10-19T10:12:18;100492.41;;;9.70;100.00
19236;BME280;9752;54.270;12.470;2023-10-19T10:17:24;100491.50;;;9.69;100.00
19236;BME280;9752;54.270;12.470;2023-10-19T10:22:27;100481.06;;;9.68;100.00
19236;BME280;9752;54.270;12.470;2023-10-19T10:27:28;100465.09;;;9.60;100.00
19236;BME280;9752;54.270;12.470;2023-10-19T10:32:45;100464.47;;;9.64;100.00
19236;BME280;9752;54.270;12.470;2023-10-19T10:37:53;100462.22;;;9.70;100.00
19236;BME280;9752;54.270;12.470;2023-10-19T10:43:05;100465.69;;;9.86;100.00
19236;BME280;9752;54.270;12.470;2023-10-19T10:48:12;100460.06;;;9.93;100.00
19236;BME280;9752;54.270;12.470;2023-10-19T10:53:14;100454.34;;;9.99;100.00
19236;BME280;9752;54.270;12.470;2023-10-19T10:58:16;100457.03;;;10.00;100.00
19236;BME280;9752;54.270;12.470;2023-10-19T11:03:20;100456.13;;;10.00;100.00
19236;BME280;9752;54.270;12.470;2023-10-19T11:08:24;100457.28;;;10.05;100.00
19236;BME280;9752;54.270;12.470;2023-10-19T11:13:26;100450.56;;;10.08;100.00
19236;BME280;9752;54.270;12.470;2023-10-19T11:18:31;100449.78;;;10.09;100.00
19236;BME280;9752;54.270;12.470;2023-10-19T11:23:37;100434.56;;;10.15;100.00
19236;BME280;9752;54.270;12.470;2023-10-19T11:28:40;100428.94;;;10.23;100.00
19236;BME280;9752;54.270;12.470;2023-10-19T11:33:50;100414.94;;;10.35;100.00
19236;BME280;9752;54.270;12.470;2023-10-19T11:38:52;100407.25;;;10.68;100.00
19236;BME280;9752;54.270;12.470;2023-10-19T11:43:54;100408.78;;;10.65;100.00
19236;BME280;9752;54.270;12.470;2023-10-19T11:48:57;100411.03;;;10.59;100.00
19236;BME280;9752;54.270;12.470;2023-10-19T11:53:59;100408.66;;;10.47;100.00
19236;BME280;9752;54.270;12.470;2023-10-19T11:59:01;100399.44;;;10.52;100.00
19236;BME280;9752;54.270;12.470;2023-10-19T12:04:05;100394.66;;;10.60;100.00
19236;BME280;9752;54.270;12.470;2023-10-19T12:09:06;100397.50;;;10.64;100.00
19236;BME280;9752;54.270;12.470;2023-10-19T12:14:15;100402.47;;;10.76;100.00
19236;BME280;9752;54.270;12.470;2023-10-19T12:19:18;100400.91;;;10.63;100.00
19236;BME280;9752;54.270;12.470;2023-10-19T12:24:20;100378.59;;;10.34;100.00
19236;BME280;9752;54.270;12.470;2023-10-19T12:29:21;100385.81;;;10.40;100.00
19236;BME280;9752;54.270;12.470;2023-10-19T12:34:25;100391.16;;;10.28;100.00
19236;BME280;9752;54.270;12.470;2023-10-19T12:39:30;100404.06;;;10.26;100.00
19236;BME280;9752;54.270;12.470;2023-10-19T12:44:43;100385.66;;;10.22;100.00
19236;BME280;9752;54.270;12.470;2023-10-19T12:49:46;100361.03;;;10.13;100.00
19236;BME280;9752;54.270;12.470;2023-10-19T12:54:48;100362.72;;;10.13;100.00
19236;BME280;9752;54.270;12.470;2023-10-19T12:59:51;100352.16;;;9.93;100.00
19236;BME280;9752;54.270;12.470;2023-10-19T13:04:54;100332.41;;;9.95;100.00
19236;BME280;9752;54.270;12.470;2023-10-19T13:09:58;100316.97;;;9.82;100.00
19236;BME280;9752;54.270;12.470;2023-10-19T13:14:59;100307.13;;;9.91;100.00
19236;BME280;9752;54.270;12.470;2023-10-19T13:20:03;100315.00;;;9.93;100.00
19236;BME280;9752;54.270;12.470;2023-10-19T13:25:16;100316.97;;;9.82;100.00
19236;BME280;9752;54.270;12.470;2023-10-19T13:30:18;100325.41;;;9.78;100.00
19236;BME280;9752;54.270;12.470;2023-10-19T13:35:21;100323.16;;;9.69;100.00
19236;BME280;9752;54.270;12.470;2023-10-19T13:40:22;100322.03;;;9.64;100.00
19236;BME280;9752;54.270;12.470;2023-10-19T13:45:25;100322.19;;;9.67;100.00
19236;BME280;9752;54.270;12.470;2023-10-19T13:50:28;100332.56;;;9.67;100.00
19236;BME280;9752;54.270;12.470;2023-10-19T13:55:30;100321.22;;;9.65;100.00
19236;BME280;9752;54.270;12.470;2023-10-19T14:00:34;100320.00;;;9.58;100.00
19236;BME280;9752;54.270;12.470;2023-10-19T14:05:43;100325.97;;;9.57;100.00
19236;BME280;9752;54.270;12.470;2023-10-19T14:10:47;100321.97;;;9.48;100.00
19236;BME280;9752;54.270;12.470;2023-10-19T14:15:49;100323.78;;;9.49;100.00
19236;BME280;9752;54.270;12.470;2023-10-19T14:20:52;100312.50;;;9.48;100.00
19236;BME280;9752;54.270;12.470;2023-10-19T14:25:54;100305.81;;;9.37;100.00
19236;BME280;9752;54.270;12.470;2023-10-19T14:30:56;100288.16;;;9.45;100.00
19236;BME280;9752;54.270;12.470;2023-10-19T14:35:59;100297.59;;;9.44;100.00
19236;BME280;9752;54.270;12.470;2023-10-19T14:41:01;100298.16;;;9.38;100.00
19236;BME280;9752;54.270;12.470;2023-10-19T14:46:04;100292.19;;;9.40;100.00
19236;BME280;9752;54.270;12.470;2023-10-19T14:51:07;100293.78;;;9.37;100.00
19236;BME280;9752;54.270;12.470;2023-10-19T14:56:09;100288.53;;;9.36;100.00
19236;BME280;9752;54.270;12.470;2023-10-19T15:01:12;100283.91;;;9.30;100.00
19236;BME280;9752;54.270;12.470;2023-10-19T15:06:18;100295.22;;;9.32;100.00
19236;BME280;9752;54.270;12.470;2023-10-19T15:11:20;100297.81;;;9.32;100.00
19236;BME280;9752;54.270;12.470;2023-10-19T15:16:22;100296.66;;;9.27;100.00
19236;BME280;9752;54.270;12.470;2023-10-19T15:21:25;100300.69;;;9.22;100.00
19236;BME280;9752;54.270;12.470;2023-10-19T15:26:28;100314.50;;;9.23;100.00
19236;BME280;9752;54.270;12.470;2023-10-19T15:31:29;100317.81;;;9.20;100.00
19236;BME280;9752;54.270;12.470;2023-10-19T15:36:32;100305.03;;;9.23;100.00
19236;BME280;9752;54.270;12.470;2023-10-19T15:41:34;100313.88;;;9.27;100.00
19236;BME280;9752;54.270;12.470;2023-10-19T15:46:36;100314.50;;;9.23;100.00
19236;BME280;9752;54.270;12.470;2023-10-19T15:51:41;100307.28;;;9.17;100.00
19236;BME280;9752;54.270;12.470;2023-10-19T15:56:42;100311.72;;;9.19;100.00
19236;BME280;9752;54.270;12.470;2023-10-19T16:01:44;100304.59;;;9.15;100.00
19236;BME280;9752;54.270;12.470;2023-10-19T16:06:47;100302.66;;;9.11;100.00
19236;BME280;9752;54.270;12.470;2023-10-19T16:11:49;100317.88;;;9.07;100.00
19236;BME280;9752;54.270;12.470;2023-10-19T16:16:52;100323.00;;;9.05;100.00
19236;BME280;9752;54.270;12.470;2023-10-19T16:21:55;100323.63;;;9.01;100.00
19236;BME280;9752;54.270;12.470;2023-10-19T16:26:56;100334.75;;;9.00;100.00
19236;BME280;9752;54.270;12.470;2023-10-19T16:31:58;100331.63;;;8.91;100.00
19236;BME280;9752;54.270;12.470;2023-10-19T16:37:01;100334.72;;;8.85;100.00
19236;BME280;9752;54.270;12.470;2023-10-19T16:42:04;100345.44;;;8.76;100.00
19236;BME280;9752;54.270;12.470;2023-10-19T16:47:05;100346.84;;;8.71;100.00
19236;BME280;9752;54.270;12.470;2023-10-19T16:52:09;100351.13;;;8.71;100.00
19236;BME280;9752;54.270;12.470;2023-10-19T16:57:11;100338.72;;;8.65;100.00
19236;BME280;9752;54.270;12.470;2023-10-19T17:02:12;100362.78;;;8.64;100.00
19236;BME280;9752;54.270;12.470;2023-10-19T17:07:15;100359.63;;;8.55;100.00
19236;BME280;9752;54.270;12.470;2023-10-19T17:12:17;100360.34;;;8.52;100.00
19236;BME280;9752;54.270;12.470;2023-10-19T17:17:19;100365.31;;;8.49;100.00
19236;BME280;9752;54.270;12.470;2023-10-19T17:22:22;100374.78;;;8.49;100.00
19236;BME280;9752;54.270;12.470;2023-10-19T17:27:23;100370.50;;;8.49;100.00
19236;BME280;9752;54.270;12.470;2023-10-19T17:32:25;100368.91;;;8.38;100.00
19236;BME280;9752;54.270;12.470;2023-10-19T17:37:29;100384.50;;;8.39;100.00
19236;BME280;9752;54.270;12.470;2023-10-19T17:42:31;100375.66;;;8.36;100.00
19236;BME280;9752;54.270;12.470;2023-10-19T17:47:33;100386.41;;;8.29;100.00
19236;BME280;9752;54.270;12.470;2023-10-19T17:52:36;100384.78;;;8.16;100.00
19236;BME280;9752;54.270;12.470;2023-10-19T17:57:38;100417.94;;;8.10;100.00
19236;BME280;9752;54.270;12.470;2023-10-19T18:02:40;100422.81;;;8.05;100.00
19236;BME280;9752;54.270;12.470;2023-10-19T18:07:44;100426.00;;;8.01;100.00
19236;BME280;9752;54.270;12.470;2023-10-19T18:12:45;100431.69;;;7.95;100.00
19236;BME280;9752;54.270;12.470;2023-10-19T18:17:47;100432.84;;;7.87;100.00
19236;BME280;9752;54.270;12.470;2023-10-19T18:22:51;100435.53;;;7.89;100.00
19236;BME280;9752;54.270;12.470;2023-10-19T18:27:53;100443.88;;;7.85;100.00
19236;BME280;9752;54.270;12.470;2023-10-19T18:32:55;100459.38;;;7.85;100.00
19236;BME280;9752;54.270;12.470;2023-10-19T18:37:58;100482.09;;;7.77;100.00
19236;BME280;9752;54.270;12.470;2023-10-19T18:42:59;100490.84;;;7.79;100.00
19236;BME280;9752;54.270;12.470;2023-10-19T18:48:01;100492.16;;;7.72;100.00
19236;BME280;9752;54.270;12.470;2023-10-19T18:53:04;100483.88;;;7.65;100.00
19236;BME280;9752;54.270;12.470;2023-10-19T18:58:07;100482.88;;;7.62;100.00
19236;BME280;9752;54.270;12.470;2023-10-19T19:03:09;100495.47;;;7.58;100.00
19236;BME280;9752;54.270;12.470;2023-10-19T19:08:12;100501.00;;;7.51;100.00
19236;BME280;9752;54.270;12.470;2023-10-19T19:13:14;100496.66;;;7.50;100.00
19236;BME280;9752;54.270;12.470;2023-10-19T19:18:16;100503.41;;;7.48;100.00
19236;BME280;9752;54.270;12.470;2023-10-19T19:23:19;100510.94;;;7.45;100.00
19236;BME280;9752;54.270;12.470;2023-10-19T19:28:20;100509.13;;;7.43;100.00
19236;BME280;9752;54.270;12.470;2023-10-19T19:33:23;100508.13;;;7.41;100.00
19236;BME280;9752;54.270;12.470;2023-10-19T19:38:26;100511.28;;;7.37;100.00
19236;BME280;9752;54.270;12.470;2023-10-19T19:43:28;100523.81;;;7.45;100.00
19236;BME280;9752;54.270;12.470;2023-10-19T19:48:30;100523.94;;;7.46;100.00
19236;BME280;9752;54.270;12.470;2023-10-19T19:53:33;100515.97;;;7.43;100.00
19236;BME280;9752;54.270;12.470;2023-10-19T19:58:35;100526.00;;;7.38;100.00
19236;BME280;9752;54.270;12.470;2023-10-19T20:03:37;100532.41;;;7.32;100.00
19236;BME280;9752;54.270;12.470;2023-10-19T20:08:40;100535.69;;;7.29;100.00
19236;BME280;9752;54.270;12.470;2023-10-19T20:13:42;100532.56;;;7.21;100.00
19236;BME280;9752;54.270;12.470;2023-10-19T20:18:43;100616.69;;;7.19;100.00
19236;BME280;9752;54.270;12.470;2023-10-19T20:23:47;100639.78;;;7.18;100.00
19236;BME280;9752;54.270;12.470;2023-10-19T20:28:49;100647.22;;;7.13;100.00
19236;BME280;9752;54.270;12.470;2023-10-19T20:33:51;100649.13;;;7.16;100.00
19236;BME280;9752;54.270;12.470;2023-10-19T20:38:54;100659.78;;;7.09;100.00
19236;BME280;9752;54.270;12.470;2023-10-19T20:43:56;100670.09;;;7.09;100.00
19236;BME280;9752;54.270;12.470;2023-10-19T20:48:57;100663.69;;;7.03;100.00
19236;BME280;9752;54.270;12.470;2023-10-19T20:54:00;100675.59;;;7.01;100.00
19236;BME280;9752;54.270;12.470;2023-10-19T20:59:03;100676.50;;;7.02;100.00
19236;BME280;9752;54.270;12.470;2023-10-19T21:04:05;100667.97;;;7.03;100.00
19236;BME280;9752;54.270;12.470;2023-10-19T21:09:08;100655.06;;;7.03;100.00
19236;BME280;9752;54.270;12.470;2023-10-19T21:14:12;100654.94;;;7.01;100.00
19236;BME280;9752;54.270;12.470;2023-10-19T21:19:14;100672.44;;;7.06;100.00
19236;BME280;9752;54.270;12.470;2023-10-19T21:24:17;100687.25;;;7.08;100.00
19236;BME280;9752;54.270;12.470;2023-10-19T21:29:19;100682.66;;;7.16;100.00
19236;BME280;9752;54.270;12.470;2023-10-19T21:34:20;100684.06;;;7.24;100.00
19236;BME280;9752;54.270;12.470;2023-10-19T21:39:23;100678.16;;;7.25;100.00
19236;BME280;9752;54.270;12.470;2023-10-19T21:44:25;100669.72;;;7.28;100.00
19236;BME280;9752;54.270;12.470;2023-10-19T21:49:27;100664.69;;;7.29;100.00
19236;BME280;9752;54.270;12.470;2023-10-19T21:54:30;100663.22;;;7.33;100.00
19236;BME280;9752;54.270;12.470;2023-10-19T21:59:31;100672.84;;;7.35;100.00
19236;BME280;9752;54.270;12.470;2023-10-19T22:04:33;100664.09;;;7.33;100.00
19236;BME280;9752;54.270;12.470;2023-10-19T22:09:36;100651.09;;;7.32;100.00
19236;BME280;9752;54.270;12.470;2023-10-19T22:14:38;100658.41;;;7.26;100.00
19236;BME280;9752;54.270;12.470;2023-10-19T22:19:40;100659.84;;;7.22;100.00
19236;BME280;9752;54.270;12.470;2023-10-19T22:24:43;100679.25;;;7.17;100.00
19236;BME280;9752;54.270;12.470;2023-10-19T22:29:45;100687.22;;;7.20;100.00
19236;BME280;9752;54.270;12.470;2023-10-19T22:34:47;100691.63;;;7.21;100.00
19236;BME280;9752;54.270;12.470;2023-10-19T22:39:50;100700.13;;;7.20;100.00
19236;BME280;9752;54.270;12.470;2023-10-19T22:44:52;100705.50;;;7.11;100.00
19236;BME280;9752;54.270;12.470;2023-10-19T22:49:53;100718.63;;;7.14;100.00
19236;BME280;9752;54.270;12.470;2023-10-19T22:54:56;100726.06;;;7.10;100.00
19236;BME280;9752;54.270;12.470;2023-10-19T22:59:58;100731.09;;;7.08;100.00
19236;BME280;9752;54.270;12.470;2023-10-19T23:05:00;100744.31;;;7.13;100.00
19236;BME280;9752;54.270;12.470;2023-10-19T23:10:04;100747.47;;;7.09;100.00
19236;BME280;9752;54.270;12.470;2023-10-19T23:15:08;100738.59;;;7.05;100.00
19236;BME280;9752;54.270;12.470;2023-10-19T23:20:15;100751.03;;;7.11;100.00
19236;BME280;9752;54.270;12.470;2023-10-19T23:25:28;100760.22;;;7.19;100.00
19236;BME280;9752;54.270;12.470;2023-10-19T23:30:32;100769.66;;;7.18;100.00
19236;BME280;9752;54.270;12.470;2023-10-19T23:35:35;100773.81;;;7.16;100.00
19236;BME280;9752;54.270;12.470;2023-10-19T23:40:38;100784.38;;;7.08;100.00
19236;BME280;9752;54.270;12.470;2023-10-19T23:45:41;100774.38;;;7.00;100.00
19236;BME280;9752;54.270;12.470;2023-10-19T23:50:43;100753.28;;;6.94;100.00
19236;BME280;9752;54.270;12.470;2023-10-19T23:55:47;100750.38;;;6.90;100.00
